cascada-tabayon-mongallo.gpx<?xml version="1.0" encoding="UTF-8" standalone="no" ?>
<gpx xmlns="http://www.topografix.com/GPX/1/1" xmlns:gpxtpx="http://www.garmin.com/xmlschemas/TrackPointExtension/v1" creator="Mapas de España v.2.5.0" version="1.1" xmlns:xsi="http://www.w3.org/2001/XMLSchema-instance" xsi:schemaLocation="http://www.topografix.com/GPX/1/1 http://www.topografix.com/GPX/1/1/gpx.xsd">
<metadata>
<name><![CDATA[2022-09-06 11:00:40]]></name>
<link href="https://www.oruxmaps.com">
<text>Mapas de España</text>
</link>
<time>2022-09-06T09:00:40.277Z</time><bounds maxlat="43.1156599" maxlon="-5.2286896" minlat="43.0997419" minlon="-5.2610146"/>
</metadata>
<wpt lat="43.1104322" lon="-5.2286896">
<ele>1005.11</ele>
<time>2022-09-06T09:00:41.238Z</time>
<name><![CDATA[]]></name>
<sym>Waypoint</sym>
<type>Comienzo</type>
<extensions>
<om:oruxmapsextensions xmlns:om="http://www.oruxmaps.com/oruxmapsextensions/1/0">
<om:ext type="ICON" subtype="0">38</om:ext>
</om:oruxmapsextensions>
</extensions>
</wpt>
<wpt lat="43.1105744" lon="-5.2287118">
<ele>986.20</ele>
<time>2022-09-06T15:34:56.833Z</time>
<name><![CDATA[]]></name>
<desc><![CDATA[<p><br /><h3>Nombre: Segmento: 1</h3><br />Hora Inicio: 11:00 6 sept. 2022<br/>Hora Fin: 17:34 6 sept. 2022<br/>Distancia recorrida: 10,9km (06:33)<br/>Tiempo en movimiento: 01:11<br/>Velocidad media: 1,67 km/h<br/>Vel. en Mov.: 9,21 km/h<br/>Velocidad Máxima: 6,68 km/h<br/>Altura Mínima: 897 m<br/>Altura Máxima: 1286 m<br/>Ganancia Altitud: 545 m<br/>Pérdida Altitud: 564 m<br/>Tiempo Ascenso: 00:01<br/>Tiempo Descenso: 00:-2<br/></p>]]></desc>
<sym>Waypoint</sym>
<type>Final</type>
<extensions>
<om:oruxmapsextensions xmlns:om="http://www.oruxmaps.com/oruxmapsextensions/1/0">
<om:ext type="ICON" subtype="0">15</om:ext>
</om:oruxmapsextensions>
</extensions>
</wpt>
<trk>
<name><![CDATA[2022-09-06 11:00:40]]></name>
<desc><![CDATA[<p>Hora Inicio: 11:00 6 sept. 2022<br/>Hora Fin: 17:34 6 sept. 2022<br/>Distancia recorrida: 10,9 km (06:33)<br/>Tiempo en movimiento: 01:11<br/>Velocidad media: 1,67 km/h<br/>Vel. en Mov.: 9,21 km/h<br/>Velocidad Máxima: 6,68 km/h<br/>Altura Mínima: 897 m<br/>Altura Máxima: 1286 m<br/>Velocidad Ascenso: 21598,1 m/h<br/>Ganancia Altitud: 545 m<br/>Pérdida Altitud: 564 m<br/>Tiempo Ascenso: 00:01<br/></p><hr align="center" width="480" style="height: 2px; width: 517px"/>]]></desc>
<type>Indefinido</type>
<extensions>
<om:oruxmapsextensions xmlns:om="http://www.oruxmaps.com/oruxmapsextensions/1/0">
<om:ext type="TYPE" subtype="0">0</om:ext>
<om:ext type="DIFFICULTY">0</om:ext>
</om:oruxmapsextensions>
</extensions>
<trkseg>
<trkpt lat="43.1104322" lon="-5.2286896">
<ele>1005.11</ele>
<time>2022-09-06T09:00:44.000Z</time>
</trkpt>
<trkpt lat="43.1104766" lon="-5.2289308">
<ele>994.10</ele>
<time>2022-09-06T09:01:50.000Z</time>
</trkpt>
<trkpt lat="43.1105781" lon="-5.2291360">
<ele>999.78</ele>
<time>2022-09-06T09:02:22.000Z</time>
</trkpt>
<trkpt lat="43.1105797" lon="-5.2293898">
<ele>1000.11</ele>
<time>2022-09-06T09:02:50.000Z</time>
</trkpt>
<trkpt lat="43.1105642" lon="-5.2296414">
<ele>1001.81</ele>
<time>2022-09-06T09:03:22.000Z</time>
</trkpt>
<trkpt lat="43.1105269" lon="-5.2298856">
<ele>1002.81</ele>
<time>2022-09-06T09:03:54.000Z</time>
</trkpt>
<trkpt lat="43.1105118" lon="-5.2301321">
<ele>1006.32</ele>
<time>2022-09-06T09:04:41.000Z</time>
</trkpt>
<trkpt lat="43.1105371" lon="-5.2303876">
<ele>1007.11</ele>
<time>2022-09-06T09:05:15.000Z</time>
</trkpt>
<trkpt lat="43.1104731" lon="-5.2306304">
<ele>1001.11</ele>
<time>2022-09-06T09:07:27.000Z</time>
</trkpt>
<trkpt lat="43.1103821" lon="-5.2308492">
<ele>999.11</ele>
<time>2022-09-06T09:07:57.000Z</time>
</trkpt>
<trkpt lat="43.1102729" lon="-5.2310480">
<ele>1003.11</ele>
<time>2022-09-06T09:08:37.000Z</time>
</trkpt>
<trkpt lat="43.1103632" lon="-5.2312734">
<ele>1005.02</ele>
<time>2022-09-06T09:09:13.000Z</time>
</trkpt>
<trkpt lat="43.1104224" lon="-5.2315078">
<ele>1006.11</ele>
<time>2022-09-06T09:09:30.000Z</time>
</trkpt>
<trkpt lat="43.1105020" lon="-5.2317368">
<ele>1007.11</ele>
<time>2022-09-06T09:09:52.000Z</time>
</trkpt>
<trkpt lat="43.1106219" lon="-5.2319341">
<ele>1009.11</ele>
<time>2022-09-06T09:10:16.000Z</time>
</trkpt>
<trkpt lat="43.1107278" lon="-5.2321415">
<ele>1009.81</ele>
<time>2022-09-06T09:10:35.000Z</time>
</trkpt>
<trkpt lat="43.1107566" lon="-5.2323863">
<ele>1010.13</ele>
<time>2022-09-06T09:11:04.000Z</time>
</trkpt>
<trkpt lat="43.1107155" lon="-5.2326273">
<ele>1015.08</ele>
<time>2022-09-06T09:12:36.000Z</time>
</trkpt>
<trkpt lat="43.1105925" lon="-5.2328168">
<ele>1017.80</ele>
<time>2022-09-06T09:13:45.000Z</time>
</trkpt>
<trkpt lat="43.1104734" lon="-5.2330135">
<ele>1019.39</ele>
<time>2022-09-06T09:14:13.000Z</time>
</trkpt>
<trkpt lat="43.1103129" lon="-5.2331421">
<ele>1024.01</ele>
<time>2022-09-06T09:14:32.000Z</time>
</trkpt>
<trkpt lat="43.1101761" lon="-5.2333107">
<ele>1029.02</ele>
<time>2022-09-06T09:15:04.000Z</time>
</trkpt>
<trkpt lat="43.1101087" lon="-5.2335492">
<ele>1032.10</ele>
<time>2022-09-06T09:15:43.000Z</time>
</trkpt>
<trkpt lat="43.1100577" lon="-5.2337890">
<ele>1033.11</ele>
<time>2022-09-06T09:16:06.000Z</time>
</trkpt>
<trkpt lat="43.1100667" lon="-5.2340410">
<ele>1037.81</ele>
<time>2022-09-06T09:16:26.000Z</time>
</trkpt>
<trkpt lat="43.1100264" lon="-5.2342943">
<ele>1041.11</ele>
<time>2022-09-06T09:17:03.000Z</time>
</trkpt>
<trkpt lat="43.1100156" lon="-5.2345433">
<ele>1041.84</ele>
<time>2022-09-06T09:19:01.000Z</time>
</trkpt>
<trkpt lat="43.1099797" lon="-5.2347927">
<ele>1049.09</ele>
<time>2022-09-06T09:19:35.000Z</time>
</trkpt>
<trkpt lat="43.1098761" lon="-5.2349987">
<ele>1046.03</ele>
<time>2022-09-06T09:20:12.000Z</time>
</trkpt>
<trkpt lat="43.1098159" lon="-5.2352368">
<ele>1051.11</ele>
<time>2022-09-06T09:20:48.000Z</time>
</trkpt>
<trkpt lat="43.1098074" lon="-5.2354852">
<ele>1054.71</ele>
<time>2022-09-06T09:21:04.000Z</time>
</trkpt>
<trkpt lat="43.1098214" lon="-5.2357375">
<ele>1056.80</ele>
<time>2022-09-06T09:21:26.000Z</time>
</trkpt>
<trkpt lat="43.1098478" lon="-5.2359858">
<ele>1062.99</ele>
<time>2022-09-06T09:21:56.000Z</time>
</trkpt>
<trkpt lat="43.1097799" lon="-5.2362224">
<ele>1069.10</ele>
<time>2022-09-06T09:23:39.000Z</time>
</trkpt>
<trkpt lat="43.1097110" lon="-5.2364581">
<ele>1074.20</ele>
<time>2022-09-06T09:24:14.000Z</time>
</trkpt>
<trkpt lat="43.1095809" lon="-5.2366427">
<ele>1075.20</ele>
<time>2022-09-06T09:24:34.000Z</time>
</trkpt>
<trkpt lat="43.1094347" lon="-5.2368166">
<ele>1078.38</ele>
<time>2022-09-06T09:26:16.000Z</time>
</trkpt>
<trkpt lat="43.1092507" lon="-5.2368854">
<ele>1080.11</ele>
<time>2022-09-06T09:26:34.000Z</time>
</trkpt>
<trkpt lat="43.1090903" lon="-5.2370069">
<ele>1083.78</ele>
<time>2022-09-06T09:26:52.000Z</time>
</trkpt>
<trkpt lat="43.1089087" lon="-5.2370806">
<ele>1088.02</ele>
<time>2022-09-06T09:27:11.000Z</time>
</trkpt>
<trkpt lat="43.1087339" lon="-5.2371467">
<ele>1087.11</ele>
<time>2022-09-06T09:27:30.000Z</time>
</trkpt>
<trkpt lat="43.1085593" lon="-5.2372468">
<ele>1092.81</ele>
<time>2022-09-06T09:27:56.000Z</time>
</trkpt>
<trkpt lat="43.1084182" lon="-5.2374038">
<ele>1099.10</ele>
<time>2022-09-06T09:28:12.000Z</time>
</trkpt>
<trkpt lat="43.1084655" lon="-5.2376472">
<ele>1099.02</ele>
<time>2022-09-06T09:28:43.000Z</time>
</trkpt>
<trkpt lat="43.1085726" lon="-5.2378601">
<ele>1100.11</ele>
<time>2022-09-06T09:29:14.000Z</time>
</trkpt>
<trkpt lat="43.1086919" lon="-5.2380478">
<ele>1101.17</ele>
<time>2022-09-06T09:29:35.000Z</time>
</trkpt>
<trkpt lat="43.1087919" lon="-5.2382706">
<ele>1103.18</ele>
<time>2022-09-06T09:29:54.000Z</time>
</trkpt>
<trkpt lat="43.1088750" lon="-5.2384933">
<ele>1108.78</ele>
<time>2022-09-06T09:30:36.000Z</time>
</trkpt>
<trkpt lat="43.1090437" lon="-5.2385907">
<ele>1106.41</ele>
<time>2022-09-06T09:31:00.000Z</time>
</trkpt>
<trkpt lat="43.1091501" lon="-5.2387933">
<ele>1104.81</ele>
<time>2022-09-06T09:31:38.000Z</time>
</trkpt>
<trkpt lat="43.1089692" lon="-5.2388644">
<ele>1108.02</ele>
<time>2022-09-06T09:33:05.000Z</time>
</trkpt>
<trkpt lat="43.1087862" lon="-5.2388402">
<ele>1110.29</ele>
<time>2022-09-06T09:33:46.000Z</time>
</trkpt>
<trkpt lat="43.1086096" lon="-5.2388960">
<ele>1116.41</ele>
<time>2022-09-06T09:34:45.000Z</time>
</trkpt>
<trkpt lat="43.1084285" lon="-5.2389610">
<ele>1120.78</ele>
<time>2022-09-06T09:35:14.000Z</time>
</trkpt>
<trkpt lat="43.1082503" lon="-5.2390157">
<ele>1127.17</ele>
<time>2022-09-06T09:35:42.000Z</time>
</trkpt>
<trkpt lat="43.1080732" lon="-5.2390826">
<ele>1129.10</ele>
<time>2022-09-06T09:36:21.000Z</time>
</trkpt>
<trkpt lat="43.1078923" lon="-5.2391408">
<ele>1132.10</ele>
<time>2022-09-06T09:36:52.000Z</time>
</trkpt>
<trkpt lat="43.1077169" lon="-5.2391981">
<ele>1137.11</ele>
<time>2022-09-06T09:37:39.000Z</time>
</trkpt>
<trkpt lat="43.1075327" lon="-5.2392501">
<ele>1141.11</ele>
<time>2022-09-06T09:38:25.000Z</time>
</trkpt>
<trkpt lat="43.1073538" lon="-5.2393020">
<ele>1145.29</ele>
<time>2022-09-06T09:38:49.000Z</time>
</trkpt>
<trkpt lat="43.1071674" lon="-5.2392946">
<ele>1150.11</ele>
<time>2022-09-06T09:39:22.000Z</time>
</trkpt>
<trkpt lat="43.1069842" lon="-5.2392792">
<ele>1152.84</ele>
<time>2022-09-06T09:39:54.000Z</time>
</trkpt>
<trkpt lat="43.1067953" lon="-5.2392753">
<ele>1162.11</ele>
<time>2022-09-06T09:41:19.000Z</time>
</trkpt>
<trkpt lat="43.1066106" lon="-5.2392820">
<ele>1167.81</ele>
<time>2022-09-06T09:41:55.000Z</time>
</trkpt>
<trkpt lat="43.1064272" lon="-5.2392910">
<ele>1175.97</ele>
<time>2022-09-06T09:42:41.000Z</time>
</trkpt>
<trkpt lat="43.1062470" lon="-5.2393028">
<ele>1175.43</ele>
<time>2022-09-06T09:44:10.000Z</time>
</trkpt>
<trkpt lat="43.1060687" lon="-5.2393439">
<ele>1183.81</ele>
<time>2022-09-06T09:45:02.000Z</time>
</trkpt>
<trkpt lat="43.1058884" lon="-5.2393673">
<ele>1189.14</ele>
<time>2022-09-06T09:46:06.000Z</time>
</trkpt>
<trkpt lat="43.1057013" lon="-5.2394185">
<ele>1194.82</ele>
<time>2022-09-06T09:46:26.000Z</time>
</trkpt>
<trkpt lat="43.1055211" lon="-5.2394703">
<ele>1198.73</ele>
<time>2022-09-06T09:46:58.000Z</time>
</trkpt>
<trkpt lat="43.1053501" lon="-5.2395508">
<ele>1200.21</ele>
<time>2022-09-06T09:47:34.000Z</time>
</trkpt>
<trkpt lat="43.1051664" lon="-5.2395775">
<ele>1198.51</ele>
<time>2022-09-06T09:47:52.000Z</time>
</trkpt>
<trkpt lat="43.1049874" lon="-5.2394936">
<ele>1199.12</ele>
<time>2022-09-06T09:50:09.000Z</time>
</trkpt>
<trkpt lat="43.1048083" lon="-5.2394612">
<ele>1206.11</ele>
<time>2022-09-06T09:50:45.000Z</time>
</trkpt>
<trkpt lat="43.1046377" lon="-5.2393670">
<ele>1209.03</ele>
<time>2022-09-06T09:51:29.000Z</time>
</trkpt>
<trkpt lat="43.1044988" lon="-5.2392056">
<ele>1216.03</ele>
<time>2022-09-06T09:53:25.000Z</time>
</trkpt>
<trkpt lat="43.1045015" lon="-5.2389554">
<ele>1219.12</ele>
<time>2022-09-06T09:54:43.000Z</time>
</trkpt>
<trkpt lat="43.1045489" lon="-5.2387152">
<ele>1229.48</ele>
<time>2022-09-06T09:57:06.000Z</time>
</trkpt>
<trkpt lat="43.1046459" lon="-5.2385076">
<ele>1238.12</ele>
<time>2022-09-06T09:59:17.000Z</time>
</trkpt>
<trkpt lat="43.1047651" lon="-5.2383229">
<ele>1245.33</ele>
<time>2022-09-06T10:01:02.000Z</time>
</trkpt>
<trkpt lat="43.1048104" lon="-5.2380806">
<ele>1257.11</ele>
<time>2022-09-06T10:02:37.000Z</time>
</trkpt>
<trkpt lat="43.1048507" lon="-5.2378174">
<ele>1264.12</ele>
<time>2022-09-06T10:03:46.000Z</time>
</trkpt>
<trkpt lat="43.1049106" lon="-5.2375776">
<ele>1268.12</ele>
<time>2022-09-06T10:04:44.000Z</time>
</trkpt>
<trkpt lat="43.1049960" lon="-5.2373605">
<ele>1267.14</ele>
<time>2022-09-06T10:05:21.000Z</time>
</trkpt>
<trkpt lat="43.1050366" lon="-5.2371200">
<ele>1272.96</ele>
<time>2022-09-06T10:07:05.000Z</time>
</trkpt>
<trkpt lat="43.1051520" lon="-5.2369212">
<ele>1266.15</ele>
<time>2022-09-06T10:15:35.000Z</time>
</trkpt>
<trkpt lat="43.1049675" lon="-5.2369022">
<ele>1269.11</ele>
<time>2022-09-06T10:19:38.000Z</time>
</trkpt>
<trkpt lat="43.1048296" lon="-5.2367342">
<ele>1280.61</ele>
<time>2022-09-06T10:20:13.000Z</time>
</trkpt>
<trkpt lat="43.1047648" lon="-5.2364993">
<ele>1282.82</ele>
<time>2022-09-06T10:21:06.000Z</time>
</trkpt>
<trkpt lat="43.1046041" lon="-5.2363861">
<ele>1286.12</ele>
<time>2022-09-06T10:21:45.000Z</time>
</trkpt>
<trkpt lat="43.1044325" lon="-5.2364772">
<ele>1289.11</ele>
<time>2022-09-06T10:22:06.000Z</time>
</trkpt>
<trkpt lat="43.1042641" lon="-5.2365802">
<ele>1293.03</ele>
<time>2022-09-06T10:22:25.000Z</time>
</trkpt>
<trkpt lat="43.1040734" lon="-5.2365701">
<ele>1285.42</ele>
<time>2022-09-06T10:23:29.000Z</time>
</trkpt>
<trkpt lat="43.1042078" lon="-5.2367447">
<ele>1287.42</ele>
<time>2022-09-06T10:30:34.000Z</time>
</trkpt>
<trkpt lat="43.1043853" lon="-5.2366756">
<ele>1287.21</ele>
<time>2022-09-06T10:31:49.000Z</time>
</trkpt>
<trkpt lat="43.1045656" lon="-5.2366570">
<ele>1287.12</ele>
<time>2022-09-06T10:32:13.000Z</time>
</trkpt>
<trkpt lat="43.1047478" lon="-5.2366966">
<ele>1283.21</ele>
<time>2022-09-06T10:32:43.000Z</time>
</trkpt>
<trkpt lat="43.1049317" lon="-5.2367484">
<ele>1278.32</ele>
<time>2022-09-06T10:33:15.000Z</time>
</trkpt>
<trkpt lat="43.1050458" lon="-5.2369429">
<ele>1279.45</ele>
<time>2022-09-06T10:34:43.000Z</time>
</trkpt>
<trkpt lat="43.1050214" lon="-5.2371997">
<ele>1276.09</ele>
<time>2022-09-06T10:35:20.000Z</time>
</trkpt>
<trkpt lat="43.1050059" lon="-5.2374604">
<ele>1274.42</ele>
<time>2022-09-06T10:35:35.000Z</time>
</trkpt>
<trkpt lat="43.1049409" lon="-5.2376924">
<ele>1268.10</ele>
<time>2022-09-06T10:36:05.000Z</time>
</trkpt>
<trkpt lat="43.1049166" lon="-5.2379404">
<ele>1261.14</ele>
<time>2022-09-06T10:37:00.000Z</time>
</trkpt>
<trkpt lat="43.1048947" lon="-5.2381897">
<ele>1256.45</ele>
<time>2022-09-06T10:37:42.000Z</time>
</trkpt>
<trkpt lat="43.1047778" lon="-5.2384096">
<ele>1248.82</ele>
<time>2022-09-06T10:38:49.000Z</time>
</trkpt>
<trkpt lat="43.1046680" lon="-5.2386048">
<ele>1238.13</ele>
<time>2022-09-06T10:40:38.000Z</time>
</trkpt>
<trkpt lat="43.1045805" lon="-5.2388201">
<ele>1229.10</ele>
<time>2022-09-06T10:42:06.000Z</time>
</trkpt>
<trkpt lat="43.1045151" lon="-5.2390725">
<ele>1226.72</ele>
<time>2022-09-06T10:43:35.000Z</time>
</trkpt>
<trkpt lat="43.1046073" lon="-5.2392857">
<ele>1216.36</ele>
<time>2022-09-06T10:44:46.000Z</time>
</trkpt>
<trkpt lat="43.1047854" lon="-5.2393533">
<ele>1214.12</ele>
<time>2022-09-06T10:45:06.000Z</time>
</trkpt>
<trkpt lat="43.1049693" lon="-5.2393592">
<ele>1209.13</ele>
<time>2022-09-06T10:45:33.000Z</time>
</trkpt>
<trkpt lat="43.1051148" lon="-5.2395099">
<ele>1200.44</ele>
<time>2022-09-06T10:46:15.000Z</time>
</trkpt>
<trkpt lat="43.1053088" lon="-5.2395029">
<ele>1201.82</ele>
<time>2022-09-06T10:47:04.000Z</time>
</trkpt>
<trkpt lat="43.1054654" lon="-5.2393709">
<ele>1199.12</ele>
<time>2022-09-06T10:47:35.000Z</time>
</trkpt>
<trkpt lat="43.1056467" lon="-5.2393038">
<ele>1196.21</ele>
<time>2022-09-06T10:48:03.000Z</time>
</trkpt>
<trkpt lat="43.1058316" lon="-5.2392893">
<ele>1195.21</ele>
<time>2022-09-06T10:48:23.000Z</time>
</trkpt>
<trkpt lat="43.1060143" lon="-5.2392760">
<ele>1189.14</ele>
<time>2022-09-06T10:49:36.000Z</time>
</trkpt>
<trkpt lat="43.1061953" lon="-5.2392537">
<ele>1185.14</ele>
<time>2022-09-06T10:50:00.000Z</time>
</trkpt>
<trkpt lat="43.1063831" lon="-5.2392615">
<ele>1181.41</ele>
<time>2022-09-06T10:50:26.000Z</time>
</trkpt>
<trkpt lat="43.1065658" lon="-5.2392445">
<ele>1172.20</ele>
<time>2022-09-06T10:50:57.000Z</time>
</trkpt>
<trkpt lat="43.1067498" lon="-5.2392686">
<ele>1167.39</ele>
<time>2022-09-06T10:51:38.000Z</time>
</trkpt>
<trkpt lat="43.1069301" lon="-5.2392131">
<ele>1160.80</ele>
<time>2022-09-06T10:52:17.000Z</time>
</trkpt>
<trkpt lat="43.1071145" lon="-5.2392263">
<ele>1153.11</ele>
<time>2022-09-06T10:55:17.000Z</time>
</trkpt>
<trkpt lat="43.1073029" lon="-5.2392195">
<ele>1153.32</ele>
<time>2022-09-06T10:55:39.000Z</time>
</trkpt>
<trkpt lat="43.1074846" lon="-5.2391726">
<ele>1153.11</ele>
<time>2022-09-06T10:55:54.000Z</time>
</trkpt>
<trkpt lat="43.1076663" lon="-5.2391356">
<ele>1149.41</ele>
<time>2022-09-06T10:56:10.000Z</time>
</trkpt>
<trkpt lat="43.1078540" lon="-5.2390759">
<ele>1143.41</ele>
<time>2022-09-06T10:56:31.000Z</time>
</trkpt>
<trkpt lat="43.1080419" lon="-5.2390332">
<ele>1140.20</ele>
<time>2022-09-06T10:56:51.000Z</time>
</trkpt>
<trkpt lat="43.1082252" lon="-5.2389752">
<ele>1135.11</ele>
<time>2022-09-06T10:57:10.000Z</time>
</trkpt>
<trkpt lat="43.1084074" lon="-5.2388898">
<ele>1133.17</ele>
<time>2022-09-06T10:57:25.000Z</time>
</trkpt>
<trkpt lat="43.1085879" lon="-5.2388388">
<ele>1126.20</ele>
<time>2022-09-06T10:57:46.000Z</time>
</trkpt>
<trkpt lat="43.1087782" lon="-5.2388149">
<ele>1116.41</ele>
<time>2022-09-06T10:58:15.000Z</time>
</trkpt>
<trkpt lat="43.1089365" lon="-5.2389420">
<ele>1109.04</ele>
<time>2022-09-06T10:58:53.000Z</time>
</trkpt>
<trkpt lat="43.1088041" lon="-5.2391107">
<ele>1113.11</ele>
<time>2022-09-06T10:59:32.000Z</time>
</trkpt>
<trkpt lat="43.1086344" lon="-5.2392372">
<ele>1116.11</ele>
<time>2022-09-06T10:59:53.000Z</time>
</trkpt>
<trkpt lat="43.1084633" lon="-5.2393377">
<ele>1121.08</ele>
<time>2022-09-06T11:00:10.000Z</time>
</trkpt>
<trkpt lat="43.1082897" lon="-5.2394430">
<ele>1123.11</ele>
<time>2022-09-06T11:00:34.000Z</time>
</trkpt>
<trkpt lat="43.1081198" lon="-5.2395501">
<ele>1121.71</ele>
<time>2022-09-06T11:02:14.000Z</time>
</trkpt>
<trkpt lat="43.1079419" lon="-5.2396400">
<ele>1121.10</ele>
<time>2022-09-06T11:02:41.000Z</time>
</trkpt>
<trkpt lat="43.1077562" lon="-5.2396815">
<ele>1119.88</ele>
<time>2022-09-06T11:03:42.000Z</time>
</trkpt>
<trkpt lat="43.1075866" lon="-5.2397748">
<ele>1118.80</ele>
<time>2022-09-06T11:04:41.000Z</time>
</trkpt>
<trkpt lat="43.1074184" lon="-5.2398628">
<ele>1124.08</ele>
<time>2022-09-06T11:05:09.000Z</time>
</trkpt>
<trkpt lat="43.1072449" lon="-5.2400067">
<ele>1129.11</ele>
<time>2022-09-06T11:05:29.000Z</time>
</trkpt>
<trkpt lat="43.1070794" lon="-5.2401169">
<ele>1129.41</ele>
<time>2022-09-06T11:05:45.000Z</time>
</trkpt>
<trkpt lat="43.1069072" lon="-5.2402260">
<ele>1129.42</ele>
<time>2022-09-06T11:06:03.000Z</time>
</trkpt>
<trkpt lat="43.1067504" lon="-5.2403513">
<ele>1129.11</ele>
<time>2022-09-06T11:06:21.000Z</time>
</trkpt>
<trkpt lat="43.1065779" lon="-5.2404569">
<ele>1129.09</ele>
<time>2022-09-06T11:06:41.000Z</time>
</trkpt>
<trkpt lat="43.1064086" lon="-5.2405644">
<ele>1128.09</ele>
<time>2022-09-06T11:07:05.000Z</time>
</trkpt>
<trkpt lat="43.1062436" lon="-5.2406768">
<ele>1130.12</ele>
<time>2022-09-06T11:07:25.000Z</time>
</trkpt>
<trkpt lat="43.1060744" lon="-5.2407834">
<ele>1127.81</ele>
<time>2022-09-06T11:08:39.000Z</time>
</trkpt>
<trkpt lat="43.1059017" lon="-5.2408715">
<ele>1127.41</ele>
<time>2022-09-06T11:10:09.000Z</time>
</trkpt>
<trkpt lat="43.1057305" lon="-5.2409598">
<ele>1128.12</ele>
<time>2022-09-06T11:11:12.000Z</time>
</trkpt>
<trkpt lat="43.1055767" lon="-5.2410954">
<ele>1133.70</ele>
<time>2022-09-06T11:11:45.000Z</time>
</trkpt>
<trkpt lat="43.1054030" lon="-5.2411622">
<ele>1135.12</ele>
<time>2022-09-06T11:12:08.000Z</time>
</trkpt>
<trkpt lat="43.1052163" lon="-5.2412564">
<ele>1139.12</ele>
<time>2022-09-06T11:12:45.000Z</time>
</trkpt>
<trkpt lat="43.1050580" lon="-5.2413875">
<ele>1141.82</ele>
<time>2022-09-06T11:13:14.000Z</time>
</trkpt>
<trkpt lat="43.1048896" lon="-5.2414757">
<ele>1147.80</ele>
<time>2022-09-06T11:13:48.000Z</time>
</trkpt>
<trkpt lat="43.1047128" lon="-5.2415845">
<ele>1149.81</ele>
<time>2022-09-06T11:14:29.000Z</time>
</trkpt>
<trkpt lat="43.1045704" lon="-5.2417423">
<ele>1156.82</ele>
<time>2022-09-06T11:15:01.000Z</time>
</trkpt>
<trkpt lat="43.1044485" lon="-5.2419417">
<ele>1160.82</ele>
<time>2022-09-06T11:15:25.000Z</time>
</trkpt>
<trkpt lat="43.1042937" lon="-5.2421002">
<ele>1164.09</ele>
<time>2022-09-06T11:15:46.000Z</time>
</trkpt>
<trkpt lat="43.1041522" lon="-5.2422768">
<ele>1167.08</ele>
<time>2022-09-06T11:16:03.000Z</time>
</trkpt>
<trkpt lat="43.1040163" lon="-5.2424547">
<ele>1169.12</ele>
<time>2022-09-06T11:16:20.000Z</time>
</trkpt>
<trkpt lat="43.1038480" lon="-5.2425565">
<ele>1170.83</ele>
<time>2022-09-06T11:16:41.000Z</time>
</trkpt>
<trkpt lat="43.1036896" lon="-5.2426935">
<ele>1173.12</ele>
<time>2022-09-06T11:17:01.000Z</time>
</trkpt>
<trkpt lat="43.1035533" lon="-5.2428609">
<ele>1172.42</ele>
<time>2022-09-06T11:18:24.000Z</time>
</trkpt>
<trkpt lat="43.1036297" lon="-5.2430937">
<ele>1173.18</ele>
<time>2022-09-06T11:20:26.000Z</time>
</trkpt>
<trkpt lat="43.1037442" lon="-5.2432856">
<ele>1171.03</ele>
<time>2022-09-06T11:21:05.000Z</time>
</trkpt>
<trkpt lat="43.1039017" lon="-5.2434056">
<ele>1174.12</ele>
<time>2022-09-06T11:21:36.000Z</time>
</trkpt>
<trkpt lat="43.1040814" lon="-5.2434622">
<ele>1179.82</ele>
<time>2022-09-06T11:22:04.000Z</time>
</trkpt>
<trkpt lat="43.1042686" lon="-5.2434339">
<ele>1187.02</ele>
<time>2022-09-06T11:22:31.000Z</time>
</trkpt>
<trkpt lat="43.1044534" lon="-5.2434596">
<ele>1186.82</ele>
<time>2022-09-06T11:22:49.000Z</time>
</trkpt>
<trkpt lat="43.1046405" lon="-5.2434465">
<ele>1185.44</ele>
<time>2022-09-06T11:23:15.000Z</time>
</trkpt>
<trkpt lat="43.1048246" lon="-5.2434328">
<ele>1193.08</ele>
<time>2022-09-06T11:24:14.000Z</time>
</trkpt>
<trkpt lat="43.1050104" lon="-5.2434372">
<ele>1199.12</ele>
<time>2022-09-06T11:25:46.000Z</time>
</trkpt>
<trkpt lat="43.1051864" lon="-5.2435035">
<ele>1201.09</ele>
<time>2022-09-06T11:26:11.000Z</time>
</trkpt>
<trkpt lat="43.1053409" lon="-5.2436343">
<ele>1204.93</ele>
<time>2022-09-06T11:26:32.000Z</time>
</trkpt>
<trkpt lat="43.1055267" lon="-5.2437511">
<ele>1210.11</ele>
<time>2022-09-06T11:26:54.000Z</time>
</trkpt>
<trkpt lat="43.1057079" lon="-5.2438542">
<ele>1211.80</ele>
<time>2022-09-06T11:28:04.000Z</time>
</trkpt>
<trkpt lat="43.1058841" lon="-5.2439378">
<ele>1215.12</ele>
<time>2022-09-06T11:28:23.000Z</time>
</trkpt>
<trkpt lat="43.1060138" lon="-5.2441127">
<ele>1214.02</ele>
<time>2022-09-06T11:28:42.000Z</time>
</trkpt>
<trkpt lat="43.1061552" lon="-5.2442687">
<ele>1213.11</ele>
<time>2022-09-06T11:29:09.000Z</time>
</trkpt>
<trkpt lat="43.1062921" lon="-5.2444434">
<ele>1216.10</ele>
<time>2022-09-06T11:29:29.000Z</time>
</trkpt>
<trkpt lat="43.1064483" lon="-5.2445962">
<ele>1216.02</ele>
<time>2022-09-06T11:30:17.000Z</time>
</trkpt>
<trkpt lat="43.1066341" lon="-5.2445748">
<ele>1218.81</ele>
<time>2022-09-06T11:30:40.000Z</time>
</trkpt>
<trkpt lat="43.1068118" lon="-5.2444763">
<ele>1225.10</ele>
<time>2022-09-06T11:30:55.000Z</time>
</trkpt>
<trkpt lat="43.1069787" lon="-5.2443728">
<ele>1228.16</ele>
<time>2022-09-06T11:31:50.000Z</time>
</trkpt>
<trkpt lat="43.1071581" lon="-5.2443918">
<ele>1224.12</ele>
<time>2022-09-06T11:32:30.000Z</time>
</trkpt>
<trkpt lat="43.1073230" lon="-5.2445014">
<ele>1215.11</ele>
<time>2022-09-06T11:33:04.000Z</time>
</trkpt>
<trkpt lat="43.1074616" lon="-5.2446630">
<ele>1213.12</ele>
<time>2022-09-06T11:33:54.000Z</time>
</trkpt>
<trkpt lat="43.1076057" lon="-5.2448252">
<ele>1213.11</ele>
<time>2022-09-06T11:34:15.000Z</time>
</trkpt>
<trkpt lat="43.1076659" lon="-5.2450602">
<ele>1214.10</ele>
<time>2022-09-06T11:34:32.000Z</time>
</trkpt>
<trkpt lat="43.1077114" lon="-5.2452995">
<ele>1211.19</ele>
<time>2022-09-06T11:34:47.000Z</time>
</trkpt>
<trkpt lat="43.1078131" lon="-5.2455032">
<ele>1206.11</ele>
<time>2022-09-06T11:35:17.000Z</time>
</trkpt>
<trkpt lat="43.1077953" lon="-5.2457496">
<ele>1210.20</ele>
<time>2022-09-06T11:35:54.000Z</time>
</trkpt>
<trkpt lat="43.1076885" lon="-5.2459608">
<ele>1210.81</ele>
<time>2022-09-06T11:36:35.000Z</time>
</trkpt>
<trkpt lat="43.1076156" lon="-5.2461884">
<ele>1209.08</ele>
<time>2022-09-06T11:36:59.000Z</time>
</trkpt>
<trkpt lat="43.1075346" lon="-5.2464104">
<ele>1209.11</ele>
<time>2022-09-06T11:37:25.000Z</time>
</trkpt>
<trkpt lat="43.1074758" lon="-5.2466442">
<ele>1208.13</ele>
<time>2022-09-06T11:37:57.000Z</time>
</trkpt>
<trkpt lat="43.1074051" lon="-5.2468739">
<ele>1208.11</ele>
<time>2022-09-06T11:38:21.000Z</time>
</trkpt>
<trkpt lat="43.1073940" lon="-5.2471265">
<ele>1210.07</ele>
<time>2022-09-06T11:38:40.000Z</time>
</trkpt>
<trkpt lat="43.1074325" lon="-5.2473812">
<ele>1213.13</ele>
<time>2022-09-06T11:39:04.000Z</time>
</trkpt>
<trkpt lat="43.1074159" lon="-5.2476304">
<ele>1211.09</ele>
<time>2022-09-06T11:39:15.000Z</time>
</trkpt>
<trkpt lat="43.1073990" lon="-5.2478779">
<ele>1211.10</ele>
<time>2022-09-06T11:39:35.000Z</time>
</trkpt>
<trkpt lat="43.1073865" lon="-5.2481249">
<ele>1211.11</ele>
<time>2022-09-06T11:39:54.000Z</time>
</trkpt>
<trkpt lat="43.1073109" lon="-5.2483485">
<ele>1211.81</ele>
<time>2022-09-06T11:40:50.000Z</time>
</trkpt>
<trkpt lat="43.1074033" lon="-5.2485612">
<ele>1211.22</ele>
<time>2022-09-06T11:41:47.000Z</time>
</trkpt>
<trkpt lat="43.1074696" lon="-5.2487919">
<ele>1209.13</ele>
<time>2022-09-06T11:42:06.000Z</time>
</trkpt>
<trkpt lat="43.1074221" lon="-5.2490337">
<ele>1209.02</ele>
<time>2022-09-06T11:43:07.000Z</time>
</trkpt>
<trkpt lat="43.1074410" lon="-5.2492912">
<ele>1205.80</ele>
<time>2022-09-06T11:44:01.000Z</time>
</trkpt>
<trkpt lat="43.1074136" lon="-5.2495365">
<ele>1212.01</ele>
<time>2022-09-06T11:44:33.000Z</time>
</trkpt>
<trkpt lat="43.1074702" lon="-5.2497816">
<ele>1215.08</ele>
<time>2022-09-06T11:45:12.000Z</time>
</trkpt>
<trkpt lat="43.1074847" lon="-5.2500555">
<ele>1212.10</ele>
<time>2022-09-06T11:45:57.000Z</time>
</trkpt>
<trkpt lat="43.1074864" lon="-5.2503031">
<ele>1213.01</ele>
<time>2022-09-06T11:46:19.000Z</time>
</trkpt>
<trkpt lat="43.1074396" lon="-5.2505699">
<ele>1218.10</ele>
<time>2022-09-06T11:46:56.000Z</time>
</trkpt>
<trkpt lat="43.1074373" lon="-5.2508200">
<ele>1221.01</ele>
<time>2022-09-06T11:47:27.000Z</time>
</trkpt>
<trkpt lat="43.1074894" lon="-5.2510566">
<ele>1226.08</ele>
<time>2022-09-06T11:47:55.000Z</time>
</trkpt>
<trkpt lat="43.1075428" lon="-5.2512990">
<ele>1224.49</ele>
<time>2022-09-06T11:48:10.000Z</time>
</trkpt>
<trkpt lat="43.1075883" lon="-5.2515477">
<ele>1219.10</ele>
<time>2022-09-06T11:48:54.000Z</time>
</trkpt>
<trkpt lat="43.1075831" lon="-5.2518034">
<ele>1222.09</ele>
<time>2022-09-06T11:49:11.000Z</time>
</trkpt>
<trkpt lat="43.1075657" lon="-5.2520576">
<ele>1220.08</ele>
<time>2022-09-06T11:49:52.000Z</time>
</trkpt>
<trkpt lat="43.1075685" lon="-5.2523072">
<ele>1220.40</ele>
<time>2022-09-06T11:50:09.000Z</time>
</trkpt>
<trkpt lat="43.1075614" lon="-5.2525595">
<ele>1222.41</ele>
<time>2022-09-06T11:50:24.000Z</time>
</trkpt>
<trkpt lat="43.1075140" lon="-5.2527983">
<ele>1222.34</ele>
<time>2022-09-06T11:50:52.000Z</time>
</trkpt>
<trkpt lat="43.1074307" lon="-5.2530434">
<ele>1221.10</ele>
<time>2022-09-06T11:51:09.000Z</time>
</trkpt>
<trkpt lat="43.1074217" lon="-5.2532923">
<ele>1218.20</ele>
<time>2022-09-06T11:51:22.000Z</time>
</trkpt>
<trkpt lat="43.1073803" lon="-5.2535560">
<ele>1217.02</ele>
<time>2022-09-06T11:51:34.000Z</time>
</trkpt>
<trkpt lat="43.1072664" lon="-5.2537468">
<ele>1212.20</ele>
<time>2022-09-06T11:51:55.000Z</time>
</trkpt>
<trkpt lat="43.1072647" lon="-5.2539965">
<ele>1213.10</ele>
<time>2022-09-06T11:52:12.000Z</time>
</trkpt>
<trkpt lat="43.1071951" lon="-5.2542237">
<ele>1213.13</ele>
<time>2022-09-06T11:52:35.000Z</time>
</trkpt>
<trkpt lat="43.1071300" lon="-5.2544670">
<ele>1214.10</ele>
<time>2022-09-06T11:53:05.000Z</time>
</trkpt>
<trkpt lat="43.1071011" lon="-5.2547158">
<ele>1214.10</ele>
<time>2022-09-06T11:54:39.000Z</time>
</trkpt>
<trkpt lat="43.1070748" lon="-5.2549630">
<ele>1215.09</ele>
<time>2022-09-06T11:54:58.000Z</time>
</trkpt>
<trkpt lat="43.1069876" lon="-5.2551789">
<ele>1213.40</ele>
<time>2022-09-06T11:55:43.000Z</time>
</trkpt>
<trkpt lat="43.1069281" lon="-5.2554115">
<ele>1208.10</ele>
<time>2022-09-06T11:56:38.000Z</time>
</trkpt>
<trkpt lat="43.1067521" lon="-5.2555141">
<ele>1207.20</ele>
<time>2022-09-06T11:56:54.000Z</time>
</trkpt>
<trkpt lat="43.1065804" lon="-5.2556335">
<ele>1206.13</ele>
<time>2022-09-06T11:57:10.000Z</time>
</trkpt>
<trkpt lat="43.1063984" lon="-5.2556347">
<ele>1209.13</ele>
<time>2022-09-06T11:58:41.000Z</time>
</trkpt>
<trkpt lat="43.1062796" lon="-5.2558391">
<ele>1208.10</ele>
<time>2022-09-06T11:59:04.000Z</time>
</trkpt>
<trkpt lat="43.1061749" lon="-5.2560564">
<ele>1206.09</ele>
<time>2022-09-06T11:59:44.000Z</time>
</trkpt>
<trkpt lat="43.1060405" lon="-5.2562298">
<ele>1204.22</ele>
<time>2022-09-06T12:00:03.000Z</time>
</trkpt>
<trkpt lat="43.1058719" lon="-5.2563204">
<ele>1204.10</ele>
<time>2022-09-06T12:00:27.000Z</time>
</trkpt>
<trkpt lat="43.1057124" lon="-5.2564513">
<ele>1201.41</ele>
<time>2022-09-06T12:01:05.000Z</time>
</trkpt>
<trkpt lat="43.1055503" lon="-5.2565661">
<ele>1201.11</ele>
<time>2022-09-06T12:01:32.000Z</time>
</trkpt>
<trkpt lat="43.1053725" lon="-5.2566498">
<ele>1198.19</ele>
<time>2022-09-06T12:02:10.000Z</time>
</trkpt>
<trkpt lat="43.1052099" lon="-5.2567669">
<ele>1190.41</ele>
<time>2022-09-06T12:02:38.000Z</time>
</trkpt>
<trkpt lat="43.1050320" lon="-5.2568222">
<ele>1185.11</ele>
<time>2022-09-06T12:05:09.000Z</time>
</trkpt>
<trkpt lat="43.1049321" lon="-5.2570382">
<ele>1178.11</ele>
<time>2022-09-06T12:06:15.000Z</time>
</trkpt>
<trkpt lat="43.1047780" lon="-5.2571688">
<ele>1173.17</ele>
<time>2022-09-06T12:06:42.000Z</time>
</trkpt>
<trkpt lat="43.1045971" lon="-5.2571395">
<ele>1170.34</ele>
<time>2022-09-06T12:07:04.000Z</time>
</trkpt>
<trkpt lat="43.1044107" lon="-5.2571480">
<ele>1167.41</ele>
<time>2022-09-06T12:07:33.000Z</time>
</trkpt>
<trkpt lat="43.1042279" lon="-5.2570715">
<ele>1167.11</ele>
<time>2022-09-06T12:07:53.000Z</time>
</trkpt>
<trkpt lat="43.1040463" lon="-5.2570401">
<ele>1167.81</ele>
<time>2022-09-06T12:08:16.000Z</time>
</trkpt>
<trkpt lat="43.1038685" lon="-5.2571096">
<ele>1166.51</ele>
<time>2022-09-06T12:08:35.000Z</time>
</trkpt>
<trkpt lat="43.1037618" lon="-5.2573174">
<ele>1166.12</ele>
<time>2022-09-06T12:08:56.000Z</time>
</trkpt>
<trkpt lat="43.1036135" lon="-5.2574597">
<ele>1162.14</ele>
<time>2022-09-06T12:09:11.000Z</time>
</trkpt>
<trkpt lat="43.1034642" lon="-5.2576020">
<ele>1157.20</ele>
<time>2022-09-06T12:09:53.000Z</time>
</trkpt>
<trkpt lat="43.1033072" lon="-5.2577472">
<ele>1153.12</ele>
<time>2022-09-06T12:10:31.000Z</time>
</trkpt>
<trkpt lat="43.1031787" lon="-5.2579306">
<ele>1154.18</ele>
<time>2022-09-06T12:10:50.000Z</time>
</trkpt>
<trkpt lat="43.1029967" lon="-5.2579767">
<ele>1148.04</ele>
<time>2022-09-06T12:22:47.000Z</time>
</trkpt>
<trkpt lat="43.1028153" lon="-5.2580247">
<ele>1150.02</ele>
<time>2022-09-06T12:23:18.000Z</time>
</trkpt>
<trkpt lat="43.1026979" lon="-5.2582300">
<ele>1151.10</ele>
<time>2022-09-06T12:23:37.000Z</time>
</trkpt>
<trkpt lat="43.1026325" lon="-5.2584753">
<ele>1151.17</ele>
<time>2022-09-06T12:23:55.000Z</time>
</trkpt>
<trkpt lat="43.1025455" lon="-5.2587027">
<ele>1150.11</ele>
<time>2022-09-06T12:24:51.000Z</time>
</trkpt>
<trkpt lat="43.1023755" lon="-5.2586056">
<ele>1148.90</ele>
<time>2022-09-06T12:25:37.000Z</time>
</trkpt>
<trkpt lat="43.1022090" lon="-5.2587186">
<ele>1151.12</ele>
<time>2022-09-06T12:25:58.000Z</time>
</trkpt>
<trkpt lat="43.1021684" lon="-5.2589713">
<ele>1154.10</ele>
<time>2022-09-06T12:26:33.000Z</time>
</trkpt>
<trkpt lat="43.1020454" lon="-5.2591664">
<ele>1144.81</ele>
<time>2022-09-06T12:28:22.000Z</time>
</trkpt>
<trkpt lat="43.1019491" lon="-5.2593790">
<ele>1148.08</ele>
<time>2022-09-06T12:29:02.000Z</time>
</trkpt>
<trkpt lat="43.1018333" lon="-5.2595796">
<ele>1154.02</ele>
<time>2022-09-06T12:29:29.000Z</time>
</trkpt>
<trkpt lat="43.1017011" lon="-5.2597476">
<ele>1157.09</ele>
<time>2022-09-06T12:29:51.000Z</time>
</trkpt>
<trkpt lat="43.1015197" lon="-5.2597716">
<ele>1157.11</ele>
<time>2022-09-06T12:30:22.000Z</time>
</trkpt>
<trkpt lat="43.1013504" lon="-5.2598621">
<ele>1162.80</ele>
<time>2022-09-06T12:31:54.000Z</time>
</trkpt>
<trkpt lat="43.1011683" lon="-5.2599210">
<ele>1166.11</ele>
<time>2022-09-06T12:34:58.000Z</time>
</trkpt>
<trkpt lat="43.1009843" lon="-5.2599145">
<ele>1173.81</ele>
<time>2022-09-06T12:36:02.000Z</time>
</trkpt>
<trkpt lat="43.1008016" lon="-5.2599122">
<ele>1180.11</ele>
<time>2022-09-06T12:38:31.000Z</time>
</trkpt>
<trkpt lat="43.1006190" lon="-5.2599030">
<ele>1186.90</ele>
<time>2022-09-06T12:39:35.000Z</time>
</trkpt>
<trkpt lat="43.1004316" lon="-5.2599065">
<ele>1194.20</ele>
<time>2022-09-06T12:40:08.000Z</time>
</trkpt>
<trkpt lat="43.1002647" lon="-5.2600018">
<ele>1197.09</ele>
<time>2022-09-06T12:40:50.000Z</time>
</trkpt>
<trkpt lat="43.1000932" lon="-5.2600783">
<ele>1200.11</ele>
<time>2022-09-06T12:41:26.000Z</time>
</trkpt>
<trkpt lat="43.0999101" lon="-5.2601129">
<ele>1209.12</ele>
<time>2022-09-06T12:42:10.000Z</time>
</trkpt>
<trkpt lat="43.0997419" lon="-5.2602047">
<ele>1217.09</ele>
<time>2022-09-06T12:47:00.000Z</time>
</trkpt>
<trkpt lat="43.0999303" lon="-5.2601105">
<ele>1213.82</ele>
<time>2022-09-06T13:04:46.000Z</time>
</trkpt>
<trkpt lat="43.1001050" lon="-5.2600493">
<ele>1204.22</ele>
<time>2022-09-06T13:07:24.000Z</time>
</trkpt>
<trkpt lat="43.1002741" lon="-5.2599556">
<ele>1196.36</ele>
<time>2022-09-06T13:08:30.000Z</time>
</trkpt>
<trkpt lat="43.1004377" lon="-5.2598466">
<ele>1194.12</ele>
<time>2022-09-06T13:09:06.000Z</time>
</trkpt>
<trkpt lat="43.1006226" lon="-5.2598965">
<ele>1190.14</ele>
<time>2022-09-06T13:10:08.000Z</time>
</trkpt>
<trkpt lat="43.1008024" lon="-5.2598851">
<ele>1183.44</ele>
<time>2022-09-06T13:11:26.000Z</time>
</trkpt>
<trkpt lat="43.1009797" lon="-5.2599488">
<ele>1173.41</ele>
<time>2022-09-06T13:12:22.000Z</time>
</trkpt>
<trkpt lat="43.1011660" lon="-5.2599169">
<ele>1167.41</ele>
<time>2022-09-06T13:14:19.000Z</time>
</trkpt>
<trkpt lat="43.1013372" lon="-5.2598198">
<ele>1163.12</ele>
<time>2022-09-06T13:14:57.000Z</time>
</trkpt>
<trkpt lat="43.1014994" lon="-5.2597102">
<ele>1160.20</ele>
<time>2022-09-06T13:15:38.000Z</time>
</trkpt>
<trkpt lat="43.1016820" lon="-5.2596980">
<ele>1156.12</ele>
<time>2022-09-06T13:16:12.000Z</time>
</trkpt>
<trkpt lat="43.1018197" lon="-5.2595283">
<ele>1153.11</ele>
<time>2022-09-06T13:16:48.000Z</time>
</trkpt>
<trkpt lat="43.1019384" lon="-5.2593397">
<ele>1150.08</ele>
<time>2022-09-06T13:17:34.000Z</time>
</trkpt>
<trkpt lat="43.1020198" lon="-5.2591072">
<ele>1138.42</ele>
<time>2022-09-06T13:18:21.000Z</time>
</trkpt>
<trkpt lat="43.1020861" lon="-5.2588782">
<ele>1142.02</ele>
<time>2022-09-06T13:39:29.000Z</time>
</trkpt>
<trkpt lat="43.1021944" lon="-5.2586763">
<ele>1144.10</ele>
<time>2022-09-06T13:40:07.000Z</time>
</trkpt>
<trkpt lat="43.1023432" lon="-5.2585337">
<ele>1149.41</ele>
<time>2022-09-06T13:40:38.000Z</time>
</trkpt>
<trkpt lat="43.1024858" lon="-5.2586842">
<ele>1145.11</ele>
<time>2022-09-06T13:41:48.000Z</time>
</trkpt>
<trkpt lat="43.1025964" lon="-5.2584867">
<ele>1151.38</ele>
<time>2022-09-06T13:43:41.000Z</time>
</trkpt>
<trkpt lat="43.1026600" lon="-5.2582487">
<ele>1150.32</ele>
<time>2022-09-06T13:44:00.000Z</time>
</trkpt>
<trkpt lat="43.1027846" lon="-5.2580570">
<ele>1147.02</ele>
<time>2022-09-06T13:44:20.000Z</time>
</trkpt>
<trkpt lat="43.1029555" lon="-5.2579668">
<ele>1147.17</ele>
<time>2022-09-06T13:45:08.000Z</time>
</trkpt>
<trkpt lat="43.1031316" lon="-5.2580187">
<ele>1141.39</ele>
<time>2022-09-06T13:45:46.000Z</time>
</trkpt>
<trkpt lat="43.1032914" lon="-5.2581511">
<ele>1140.20</ele>
<time>2022-09-06T13:46:41.000Z</time>
</trkpt>
<trkpt lat="43.1034515" lon="-5.2582761">
<ele>1137.11</ele>
<time>2022-09-06T13:47:10.000Z</time>
</trkpt>
<trkpt lat="43.1036067" lon="-5.2584091">
<ele>1138.11</ele>
<time>2022-09-06T13:47:46.000Z</time>
</trkpt>
<trkpt lat="43.1037115" lon="-5.2586138">
<ele>1135.11</ele>
<time>2022-09-06T13:48:22.000Z</time>
</trkpt>
<trkpt lat="43.1038382" lon="-5.2588067">
<ele>1131.20</ele>
<time>2022-09-06T13:48:55.000Z</time>
</trkpt>
<trkpt lat="43.1039999" lon="-5.2589298">
<ele>1127.40</ele>
<time>2022-09-06T13:49:23.000Z</time>
</trkpt>
<trkpt lat="43.1041814" lon="-5.2589354">
<ele>1121.32</ele>
<time>2022-09-06T13:49:48.000Z</time>
</trkpt>
<trkpt lat="43.1043390" lon="-5.2587852">
<ele>1118.11</ele>
<time>2022-09-06T13:50:26.000Z</time>
</trkpt>
<trkpt lat="43.1045227" lon="-5.2587646">
<ele>1115.81</ele>
<time>2022-09-06T13:50:48.000Z</time>
</trkpt>
<trkpt lat="43.1046986" lon="-5.2586893">
<ele>1112.11</ele>
<time>2022-09-06T13:51:16.000Z</time>
</trkpt>
<trkpt lat="43.1048571" lon="-5.2585554">
<ele>1112.41</ele>
<time>2022-09-06T13:51:45.000Z</time>
</trkpt>
<trkpt lat="43.1049655" lon="-5.2587624">
<ele>1100.40</ele>
<time>2022-09-06T13:53:02.000Z</time>
</trkpt>
<trkpt lat="43.1049857" lon="-5.2590156">
<ele>1094.41</ele>
<time>2022-09-06T13:53:26.000Z</time>
</trkpt>
<trkpt lat="43.1049358" lon="-5.2592689">
<ele>1090.10</ele>
<time>2022-09-06T13:53:55.000Z</time>
</trkpt>
<trkpt lat="43.1050945" lon="-5.2594085">
<ele>1079.33</ele>
<time>2022-09-06T13:55:38.000Z</time>
</trkpt>
<trkpt lat="43.1052870" lon="-5.2593849">
<ele>1075.81</ele>
<time>2022-09-06T13:56:43.000Z</time>
</trkpt>
<trkpt lat="43.1054577" lon="-5.2592793">
<ele>1072.80</ele>
<time>2022-09-06T13:57:16.000Z</time>
</trkpt>
<trkpt lat="43.1055565" lon="-5.2590658">
<ele>1067.40</ele>
<time>2022-09-06T13:57:52.000Z</time>
</trkpt>
<trkpt lat="43.1057338" lon="-5.2590045">
<ele>1063.80</ele>
<time>2022-09-06T13:58:27.000Z</time>
</trkpt>
<trkpt lat="43.1059167" lon="-5.2589747">
<ele>1063.10</ele>
<time>2022-09-06T13:59:09.000Z</time>
</trkpt>
<trkpt lat="43.1060958" lon="-5.2588944">
<ele>1061.10</ele>
<time>2022-09-06T13:59:36.000Z</time>
</trkpt>
<trkpt lat="43.1062857" lon="-5.2589511">
<ele>1053.70</ele>
<time>2022-09-06T14:00:04.000Z</time>
</trkpt>
<trkpt lat="43.1064774" lon="-5.2589397">
<ele>1048.13</ele>
<time>2022-09-06T14:00:53.000Z</time>
</trkpt>
<trkpt lat="43.1066563" lon="-5.2590155">
<ele>1047.25</ele>
<time>2022-09-06T14:01:29.000Z</time>
</trkpt>
<trkpt lat="43.1068250" lon="-5.2591289">
<ele>1042.40</ele>
<time>2022-09-06T14:02:01.000Z</time>
</trkpt>
<trkpt lat="43.1069791" lon="-5.2592777">
<ele>1032.22</ele>
<time>2022-09-06T14:02:40.000Z</time>
</trkpt>
<trkpt lat="43.1070639" lon="-5.2595004">
<ele>1021.71</ele>
<time>2022-09-06T14:03:19.000Z</time>
</trkpt>
<trkpt lat="43.1072267" lon="-5.2596114">
<ele>1019.31</ele>
<time>2022-09-06T14:04:21.000Z</time>
</trkpt>
<trkpt lat="43.1074113" lon="-5.2596934">
<ele>1018.31</ele>
<time>2022-09-06T14:05:13.000Z</time>
</trkpt>
<trkpt lat="43.1075975" lon="-5.2597328">
<ele>1021.10</ele>
<time>2022-09-06T14:05:35.000Z</time>
</trkpt>
<trkpt lat="43.1077826" lon="-5.2597258">
<ele>1023.10</ele>
<time>2022-09-06T14:05:53.000Z</time>
</trkpt>
<trkpt lat="43.1079618" lon="-5.2597964">
<ele>1018.09</ele>
<time>2022-09-06T14:06:47.000Z</time>
</trkpt>
<trkpt lat="43.1081290" lon="-5.2599037">
<ele>1019.86</ele>
<time>2022-09-06T14:07:08.000Z</time>
</trkpt>
<trkpt lat="43.1082950" lon="-5.2600031">
<ele>1021.18</ele>
<time>2022-09-06T14:07:26.000Z</time>
</trkpt>
<trkpt lat="43.1084822" lon="-5.2600078">
<ele>1020.79</ele>
<time>2022-09-06T14:07:44.000Z</time>
</trkpt>
<trkpt lat="43.1086581" lon="-5.2601131">
<ele>1021.00</ele>
<time>2022-09-06T14:08:01.000Z</time>
</trkpt>
<trkpt lat="43.1088238" lon="-5.2602373">
<ele>1017.79</ele>
<time>2022-09-06T14:08:16.000Z</time>
</trkpt>
<trkpt lat="43.1089934" lon="-5.2603614">
<ele>1017.07</ele>
<time>2022-09-06T14:08:34.000Z</time>
</trkpt>
<trkpt lat="43.1091690" lon="-5.2604367">
<ele>1016.36</ele>
<time>2022-09-06T14:08:51.000Z</time>
</trkpt>
<trkpt lat="43.1093233" lon="-5.2605803">
<ele>1010.10</ele>
<time>2022-09-06T14:09:10.000Z</time>
</trkpt>
<trkpt lat="43.1094996" lon="-5.2606761">
<ele>1009.09</ele>
<time>2022-09-06T14:09:37.000Z</time>
</trkpt>
<trkpt lat="43.1096803" lon="-5.2607187">
<ele>1004.08</ele>
<time>2022-09-06T14:10:03.000Z</time>
</trkpt>
<trkpt lat="43.1098678" lon="-5.2607459">
<ele>1003.11</ele>
<time>2022-09-06T14:10:25.000Z</time>
</trkpt>
<trkpt lat="43.1100068" lon="-5.2609071">
<ele>1002.33</ele>
<time>2022-09-06T14:10:44.000Z</time>
</trkpt>
<trkpt lat="43.1101745" lon="-5.2610146">
<ele>1003.77</ele>
<time>2022-09-06T14:11:33.000Z</time>
</trkpt>
<trkpt lat="43.1103466" lon="-5.2609277">
<ele>1006.09</ele>
<time>2022-09-06T14:12:20.000Z</time>
</trkpt>
<trkpt lat="43.1104608" lon="-5.2607346">
<ele>1008.09</ele>
<time>2022-09-06T14:12:36.000Z</time>
</trkpt>
<trkpt lat="43.1106068" lon="-5.2605807">
<ele>1010.09</ele>
<time>2022-09-06T14:12:56.000Z</time>
</trkpt>
<trkpt lat="43.1107674" lon="-5.2604601">
<ele>1012.15</ele>
<time>2022-09-06T14:13:14.000Z</time>
</trkpt>
<trkpt lat="43.1108741" lon="-5.2602517">
<ele>1014.09</ele>
<time>2022-09-06T14:13:32.000Z</time>
</trkpt>
<trkpt lat="43.1109910" lon="-5.2600538">
<ele>1009.39</ele>
<time>2022-09-06T14:14:07.000Z</time>
</trkpt>
<trkpt lat="43.1111373" lon="-5.2598851">
<ele>1011.09</ele>
<time>2022-09-06T14:14:33.000Z</time>
</trkpt>
<trkpt lat="43.1112452" lon="-5.2596706">
<ele>1009.39</ele>
<time>2022-09-06T14:14:53.000Z</time>
</trkpt>
<trkpt lat="43.1113891" lon="-5.2595176">
<ele>1002.09</ele>
<time>2022-09-06T14:15:54.000Z</time>
</trkpt>
<trkpt lat="43.1115298" lon="-5.2593557">
<ele>996.09</ele>
<time>2022-09-06T14:16:37.000Z</time>
</trkpt>
<trkpt lat="43.1116684" lon="-5.2591676">
<ele>995.09</ele>
<time>2022-09-06T14:17:01.000Z</time>
</trkpt>
<trkpt lat="43.1118061" lon="-5.2589903">
<ele>994.17</ele>
<time>2022-09-06T14:17:19.000Z</time>
</trkpt>
<trkpt lat="43.1119073" lon="-5.2587740">
<ele>994.02</ele>
<time>2022-09-06T14:17:35.000Z</time>
</trkpt>
<trkpt lat="43.1120267" lon="-5.2585863">
<ele>991.08</ele>
<time>2022-09-06T14:17:55.000Z</time>
</trkpt>
<trkpt lat="43.1121856" lon="-5.2584563">
<ele>986.11</ele>
<time>2022-09-06T14:18:09.000Z</time>
</trkpt>
<trkpt lat="43.1123504" lon="-5.2583447">
<ele>977.32</ele>
<time>2022-09-06T14:18:34.000Z</time>
</trkpt>
<trkpt lat="43.1124809" lon="-5.2581748">
<ele>972.81</ele>
<time>2022-09-06T14:19:10.000Z</time>
</trkpt>
<trkpt lat="43.1126013" lon="-5.2579719">
<ele>967.38</ele>
<time>2022-09-06T14:19:49.000Z</time>
</trkpt>
<trkpt lat="43.1126606" lon="-5.2577255">
<ele>967.41</ele>
<time>2022-09-06T14:20:28.000Z</time>
</trkpt>
<trkpt lat="43.1127528" lon="-5.2574893">
<ele>965.08</ele>
<time>2022-09-06T14:20:51.000Z</time>
</trkpt>
<trkpt lat="43.1128203" lon="-5.2572581">
<ele>961.02</ele>
<time>2022-09-06T14:21:14.000Z</time>
</trkpt>
<trkpt lat="43.1128929" lon="-5.2570259">
<ele>960.00</ele>
<time>2022-09-06T14:21:44.000Z</time>
</trkpt>
<trkpt lat="43.1129540" lon="-5.2567867">
<ele>955.06</ele>
<time>2022-09-06T14:22:14.000Z</time>
</trkpt>
<trkpt lat="43.1130176" lon="-5.2565513">
<ele>958.08</ele>
<time>2022-09-06T14:22:37.000Z</time>
</trkpt>
<trkpt lat="43.1131246" lon="-5.2563239">
<ele>956.09</ele>
<time>2022-09-06T14:22:57.000Z</time>
</trkpt>
<trkpt lat="43.1132800" lon="-5.2561871">
<ele>950.26</ele>
<time>2022-09-06T14:23:44.000Z</time>
</trkpt>
<trkpt lat="43.1134484" lon="-5.2560431">
<ele>943.08</ele>
<time>2022-09-06T14:24:29.000Z</time>
</trkpt>
<trkpt lat="43.1136244" lon="-5.2559883">
<ele>940.20</ele>
<time>2022-09-06T14:25:03.000Z</time>
</trkpt>
<trkpt lat="43.1136929" lon="-5.2557568">
<ele>934.98</ele>
<time>2022-09-06T14:25:52.000Z</time>
</trkpt>
<trkpt lat="43.1137726" lon="-5.2555243">
<ele>928.07</ele>
<time>2022-09-06T14:26:30.000Z</time>
</trkpt>
<trkpt lat="43.1139080" lon="-5.2553501">
<ele>933.09</ele>
<time>2022-09-06T14:26:56.000Z</time>
</trkpt>
<trkpt lat="43.1138979" lon="-5.2551004">
<ele>935.11</ele>
<time>2022-09-06T14:27:31.000Z</time>
</trkpt>
<trkpt lat="43.1139241" lon="-5.2548543">
<ele>940.75</ele>
<time>2022-09-06T14:27:55.000Z</time>
</trkpt>
<trkpt lat="43.1139953" lon="-5.2545977">
<ele>938.08</ele>
<time>2022-09-06T14:28:26.000Z</time>
</trkpt>
<trkpt lat="43.1140525" lon="-5.2543625">
<ele>938.05</ele>
<time>2022-09-06T14:28:50.000Z</time>
</trkpt>
<trkpt lat="43.1141790" lon="-5.2541859">
<ele>938.08</ele>
<time>2022-09-06T14:29:11.000Z</time>
</trkpt>
<trkpt lat="43.1143520" lon="-5.2541101">
<ele>934.09</ele>
<time>2022-09-06T14:29:29.000Z</time>
</trkpt>
<trkpt lat="43.1145423" lon="-5.2540373">
<ele>928.08</ele>
<time>2022-09-06T14:30:02.000Z</time>
</trkpt>
<trkpt lat="43.1146742" lon="-5.2538660">
<ele>925.08</ele>
<time>2022-09-06T14:30:18.000Z</time>
</trkpt>
<trkpt lat="43.1148477" lon="-5.2537380">
<ele>923.08</ele>
<time>2022-09-06T14:30:40.000Z</time>
</trkpt>
<trkpt lat="43.1150259" lon="-5.2536732">
<ele>925.99</ele>
<time>2022-09-06T14:30:58.000Z</time>
</trkpt>
<trkpt lat="43.1152081" lon="-5.2537068">
<ele>921.20</ele>
<time>2022-09-06T14:31:26.000Z</time>
</trkpt>
<trkpt lat="43.1153833" lon="-5.2536078">
<ele>921.75</ele>
<time>2022-09-06T14:31:51.000Z</time>
</trkpt>
<trkpt lat="43.1155243" lon="-5.2534446">
<ele>922.05</ele>
<time>2022-09-06T14:32:10.000Z</time>
</trkpt>
<trkpt lat="43.1156599" lon="-5.2532505">
<ele>921.38</ele>
<time>2022-09-06T14:32:32.000Z</time>
</trkpt>
<trkpt lat="43.1156578" lon="-5.2529872">
<ele>916.78</ele>
<time>2022-09-06T14:32:57.000Z</time>
</trkpt>
<trkpt lat="43.1155773" lon="-5.2527491">
<ele>916.08</ele>
<time>2022-09-06T14:33:13.000Z</time>
</trkpt>
<trkpt lat="43.1155297" lon="-5.2525097">
<ele>916.02</ele>
<time>2022-09-06T14:33:28.000Z</time>
</trkpt>
<trkpt lat="43.1154196" lon="-5.2523131">
<ele>918.80</ele>
<time>2022-09-06T14:33:51.000Z</time>
</trkpt>
<trkpt lat="43.1153380" lon="-5.2520909">
<ele>920.86</ele>
<time>2022-09-06T14:34:09.000Z</time>
</trkpt>
<trkpt lat="43.1153041" lon="-5.2518399">
<ele>922.29</ele>
<time>2022-09-06T14:35:14.000Z</time>
</trkpt>
<trkpt lat="43.1153256" lon="-5.2515853">
<ele>922.08</ele>
<time>2022-09-06T14:35:38.000Z</time>
</trkpt>
<trkpt lat="43.1153054" lon="-5.2513394">
<ele>916.68</ele>
<time>2022-09-06T14:35:57.000Z</time>
</trkpt>
<trkpt lat="43.1153073" lon="-5.2510870">
<ele>912.68</ele>
<time>2022-09-06T14:36:43.000Z</time>
</trkpt>
<trkpt lat="43.1152602" lon="-5.2508370">
<ele>914.16</ele>
<time>2022-09-06T14:37:04.000Z</time>
</trkpt>
<trkpt lat="43.1151752" lon="-5.2506054">
<ele>914.78</ele>
<time>2022-09-06T14:37:39.000Z</time>
</trkpt>
<trkpt lat="43.1150642" lon="-5.2503938">
<ele>916.08</ele>
<time>2022-09-06T14:37:54.000Z</time>
</trkpt>
<trkpt lat="43.1149634" lon="-5.2501791">
<ele>918.08</ele>
<time>2022-09-06T14:38:07.000Z</time>
</trkpt>
<trkpt lat="43.1148809" lon="-5.2499553">
<ele>918.08</ele>
<time>2022-09-06T14:38:22.000Z</time>
</trkpt>
<trkpt lat="43.1147853" lon="-5.2497344">
<ele>915.32</ele>
<time>2022-09-06T14:38:37.000Z</time>
</trkpt>
<trkpt lat="43.1146381" lon="-5.2495822">
<ele>915.38</ele>
<time>2022-09-06T14:38:54.000Z</time>
</trkpt>
<trkpt lat="43.1145494" lon="-5.2493675">
<ele>912.38</ele>
<time>2022-09-06T14:39:23.000Z</time>
</trkpt>
<trkpt lat="43.1145897" lon="-5.2491023">
<ele>907.09</ele>
<time>2022-09-06T14:39:42.000Z</time>
</trkpt>
<trkpt lat="43.1145134" lon="-5.2488603">
<ele>904.08</ele>
<time>2022-09-06T14:40:01.000Z</time>
</trkpt>
<trkpt lat="43.1143957" lon="-5.2486599">
<ele>904.09</ele>
<time>2022-09-06T14:40:15.000Z</time>
</trkpt>
<trkpt lat="43.1142872" lon="-5.2484610">
<ele>905.00</ele>
<time>2022-09-06T14:40:50.000Z</time>
</trkpt>
<trkpt lat="43.1142480" lon="-5.2482066">
<ele>906.09</ele>
<time>2022-09-06T14:41:12.000Z</time>
</trkpt>
<trkpt lat="43.1142882" lon="-5.2479492">
<ele>907.00</ele>
<time>2022-09-06T14:41:30.000Z</time>
</trkpt>
<trkpt lat="43.1143479" lon="-5.2476991">
<ele>907.38</ele>
<time>2022-09-06T14:41:43.000Z</time>
</trkpt>
<trkpt lat="43.1144273" lon="-5.2474772">
<ele>908.17</ele>
<time>2022-09-06T14:41:58.000Z</time>
</trkpt>
<trkpt lat="43.1144690" lon="-5.2472311">
<ele>908.09</ele>
<time>2022-09-06T14:42:13.000Z</time>
</trkpt>
<trkpt lat="43.1144807" lon="-5.2469807">
<ele>902.79</ele>
<time>2022-09-06T14:42:35.000Z</time>
</trkpt>
<trkpt lat="43.1144473" lon="-5.2467332">
<ele>902.11</ele>
<time>2022-09-06T14:42:51.000Z</time>
</trkpt>
<trkpt lat="43.1144219" lon="-5.2464729">
<ele>902.09</ele>
<time>2022-09-06T14:43:07.000Z</time>
</trkpt>
<trkpt lat="43.1143743" lon="-5.2462147">
<ele>900.09</ele>
<time>2022-09-06T14:43:34.000Z</time>
</trkpt>
<trkpt lat="43.1143786" lon="-5.2459351">
<ele>897.09</ele>
<time>2022-09-06T14:44:04.000Z</time>
</trkpt>
<trkpt lat="43.1144476" lon="-5.2457052">
<ele>892.18</ele>
<time>2022-09-06T14:45:04.000Z</time>
</trkpt>
<trkpt lat="43.1146281" lon="-5.2457199">
<ele>887.18</ele>
<time>2022-09-06T14:45:31.000Z</time>
</trkpt>
<trkpt lat="43.1147954" lon="-5.2458167">
<ele>895.79</ele>
<time>2022-09-06T14:45:56.000Z</time>
</trkpt>
<trkpt lat="43.1149342" lon="-5.2459758">
<ele>900.09</ele>
<time>2022-09-06T14:46:25.000Z</time>
</trkpt>
<trkpt lat="43.1150732" lon="-5.2461400">
<ele>902.02</ele>
<time>2022-09-06T14:46:43.000Z</time>
</trkpt>
<trkpt lat="43.1151137" lon="-5.2463878">
<ele>905.06</ele>
<time>2022-09-06T14:47:02.000Z</time>
</trkpt>
<trkpt lat="43.1151021" lon="-5.2466616">
<ele>907.78</ele>
<time>2022-09-06T14:47:21.000Z</time>
</trkpt>
<trkpt lat="43.1150534" lon="-5.2469084">
<ele>911.08</ele>
<time>2022-09-06T14:47:45.000Z</time>
</trkpt>
<trkpt lat="43.1150448" lon="-5.2471620">
<ele>914.08</ele>
<time>2022-09-06T14:48:02.000Z</time>
</trkpt>
<trkpt lat="43.1152199" lon="-5.2470906">
<ele>905.09</ele>
<time>2022-09-06T14:48:47.000Z</time>
</trkpt>
<trkpt lat="43.1153727" lon="-5.2469188">
<ele>910.08</ele>
<time>2022-09-06T14:49:25.000Z</time>
</trkpt>
<trkpt lat="43.1154599" lon="-5.2467002">
<ele>913.75</ele>
<time>2022-09-06T14:49:44.000Z</time>
</trkpt>
<trkpt lat="43.1154141" lon="-5.2464585">
<ele>914.08</ele>
<time>2022-09-06T14:50:54.000Z</time>
</trkpt>
<trkpt lat="43.1153412" lon="-5.2462242">
<ele>915.81</ele>
<time>2022-09-06T14:51:15.000Z</time>
</trkpt>
<trkpt lat="43.1153138" lon="-5.2459569">
<ele>919.06</ele>
<time>2022-09-06T14:51:33.000Z</time>
</trkpt>
<trkpt lat="43.1152667" lon="-5.2457092">
<ele>921.00</ele>
<time>2022-09-06T14:51:52.000Z</time>
</trkpt>
<trkpt lat="43.1152057" lon="-5.2454642">
<ele>924.08</ele>
<time>2022-09-06T14:52:11.000Z</time>
</trkpt>
<trkpt lat="43.1151912" lon="-5.2452135">
<ele>925.58</ele>
<time>2022-09-06T14:52:22.000Z</time>
</trkpt>
<trkpt lat="43.1151549" lon="-5.2449677">
<ele>921.39</ele>
<time>2022-09-06T14:52:38.000Z</time>
</trkpt>
<trkpt lat="43.1151431" lon="-5.2447131">
<ele>920.39</ele>
<time>2022-09-06T14:52:54.000Z</time>
</trkpt>
<trkpt lat="43.1151740" lon="-5.2444572">
<ele>923.78</ele>
<time>2022-09-06T14:53:15.000Z</time>
</trkpt>
<trkpt lat="43.1151831" lon="-5.2442087">
<ele>925.09</ele>
<time>2022-09-06T14:53:31.000Z</time>
</trkpt>
<trkpt lat="43.1151865" lon="-5.2439573">
<ele>924.09</ele>
<time>2022-09-06T14:55:01.000Z</time>
</trkpt>
<trkpt lat="43.1151701" lon="-5.2437079">
<ele>926.84</ele>
<time>2022-09-06T14:55:18.000Z</time>
</trkpt>
<trkpt lat="43.1151827" lon="-5.2434576">
<ele>928.39</ele>
<time>2022-09-06T14:55:35.000Z</time>
</trkpt>
<trkpt lat="43.1151340" lon="-5.2432038">
<ele>931.09</ele>
<time>2022-09-06T14:55:54.000Z</time>
</trkpt>
<trkpt lat="43.1151207" lon="-5.2429440">
<ele>932.39</ele>
<time>2022-09-06T14:56:24.000Z</time>
</trkpt>
<trkpt lat="43.1151250" lon="-5.2426894">
<ele>929.18</ele>
<time>2022-09-06T14:56:41.000Z</time>
</trkpt>
<trkpt lat="43.1150891" lon="-5.2424302">
<ele>924.06</ele>
<time>2022-09-06T14:57:03.000Z</time>
</trkpt>
<trkpt lat="43.1149600" lon="-5.2422453">
<ele>922.08</ele>
<time>2022-09-06T14:57:20.000Z</time>
</trkpt>
<trkpt lat="43.1148695" lon="-5.2420120">
<ele>919.39</ele>
<time>2022-09-06T14:57:45.000Z</time>
</trkpt>
<trkpt lat="43.1147547" lon="-5.2418211">
<ele>920.09</ele>
<time>2022-09-06T14:58:00.000Z</time>
</trkpt>
<trkpt lat="43.1147152" lon="-5.2415408">
<ele>924.09</ele>
<time>2022-09-06T14:58:19.000Z</time>
</trkpt>
<trkpt lat="43.1147205" lon="-5.2412692">
<ele>926.09</ele>
<time>2022-09-06T14:58:36.000Z</time>
</trkpt>
<trkpt lat="43.1147518" lon="-5.2410135">
<ele>925.09</ele>
<time>2022-09-06T14:58:52.000Z</time>
</trkpt>
<trkpt lat="43.1147639" lon="-5.2407537">
<ele>924.37</ele>
<time>2022-09-06T14:59:06.000Z</time>
</trkpt>
<trkpt lat="43.1146985" lon="-5.2405100">
<ele>925.09</ele>
<time>2022-09-06T14:59:32.000Z</time>
</trkpt>
<trkpt lat="43.1146239" lon="-5.2402805">
<ele>925.09</ele>
<time>2022-09-06T14:59:49.000Z</time>
</trkpt>
<trkpt lat="43.1145355" lon="-5.2400553">
<ele>924.10</ele>
<time>2022-09-06T15:00:11.000Z</time>
</trkpt>
<trkpt lat="43.1144100" lon="-5.2398759">
<ele>924.09</ele>
<time>2022-09-06T15:00:27.000Z</time>
</trkpt>
<trkpt lat="43.1142880" lon="-5.2396819">
<ele>922.81</ele>
<time>2022-09-06T15:00:43.000Z</time>
</trkpt>
<trkpt lat="43.1143052" lon="-5.2394294">
<ele>923.00</ele>
<time>2022-09-06T15:01:02.000Z</time>
</trkpt>
<trkpt lat="43.1143577" lon="-5.2391760">
<ele>921.79</ele>
<time>2022-09-06T15:01:21.000Z</time>
</trkpt>
<trkpt lat="43.1143882" lon="-5.2389264">
<ele>914.10</ele>
<time>2022-09-06T15:01:54.000Z</time>
</trkpt>
<trkpt lat="43.1142631" lon="-5.2387464">
<ele>921.79</ele>
<time>2022-09-06T15:02:28.000Z</time>
</trkpt>
<trkpt lat="43.1141023" lon="-5.2386351">
<ele>926.16</ele>
<time>2022-09-06T15:02:49.000Z</time>
</trkpt>
<trkpt lat="43.1139427" lon="-5.2385156">
<ele>927.07</ele>
<time>2022-09-06T15:03:20.000Z</time>
</trkpt>
<trkpt lat="43.1137749" lon="-5.2384008">
<ele>931.79</ele>
<time>2022-09-06T15:03:43.000Z</time>
</trkpt>
<trkpt lat="43.1136324" lon="-5.2382493">
<ele>935.00</ele>
<time>2022-09-06T15:04:01.000Z</time>
</trkpt>
<trkpt lat="43.1135531" lon="-5.2380070">
<ele>938.09</ele>
<time>2022-09-06T15:04:39.000Z</time>
</trkpt>
<trkpt lat="43.1134692" lon="-5.2377722">
<ele>944.09</ele>
<time>2022-09-06T15:05:11.000Z</time>
</trkpt>
<trkpt lat="43.1134527" lon="-5.2375232">
<ele>948.03</ele>
<time>2022-09-06T15:05:31.000Z</time>
</trkpt>
<trkpt lat="43.1133954" lon="-5.2372891">
<ele>950.10</ele>
<time>2022-09-06T15:05:55.000Z</time>
</trkpt>
<trkpt lat="43.1133307" lon="-5.2370533">
<ele>953.10</ele>
<time>2022-09-06T15:06:28.000Z</time>
</trkpt>
<trkpt lat="43.1132331" lon="-5.2368368">
<ele>955.09</ele>
<time>2022-09-06T15:07:02.000Z</time>
</trkpt>
<trkpt lat="43.1131322" lon="-5.2366270">
<ele>959.09</ele>
<time>2022-09-06T15:07:27.000Z</time>
</trkpt>
<trkpt lat="43.1129879" lon="-5.2364690">
<ele>961.89</ele>
<time>2022-09-06T15:07:49.000Z</time>
</trkpt>
<trkpt lat="43.1128557" lon="-5.2362963">
<ele>962.48</ele>
<time>2022-09-06T15:08:07.000Z</time>
</trkpt>
<trkpt lat="43.1127523" lon="-5.2360789">
<ele>967.07</ele>
<time>2022-09-06T15:08:29.000Z</time>
</trkpt>
<trkpt lat="43.1126730" lon="-5.2358568">
<ele>968.80</ele>
<time>2022-09-06T15:08:47.000Z</time>
</trkpt>
<trkpt lat="43.1126558" lon="-5.2356053">
<ele>966.10</ele>
<time>2022-09-06T15:09:06.000Z</time>
</trkpt>
<trkpt lat="43.1125103" lon="-5.2354459">
<ele>967.10</ele>
<time>2022-09-06T15:09:47.000Z</time>
</trkpt>
<trkpt lat="43.1124081" lon="-5.2352412">
<ele>968.10</ele>
<time>2022-09-06T15:10:05.000Z</time>
</trkpt>
<trkpt lat="43.1123438" lon="-5.2349973">
<ele>971.11</ele>
<time>2022-09-06T15:10:25.000Z</time>
</trkpt>
<trkpt lat="43.1122765" lon="-5.2347619">
<ele>971.98</ele>
<time>2022-09-06T15:10:59.000Z</time>
</trkpt>
<trkpt lat="43.1122219" lon="-5.2345153">
<ele>972.07</ele>
<time>2022-09-06T15:11:19.000Z</time>
</trkpt>
<trkpt lat="43.1121870" lon="-5.2342675">
<ele>976.01</ele>
<time>2022-09-06T15:11:36.000Z</time>
</trkpt>
<trkpt lat="43.1122151" lon="-5.2340234">
<ele>978.09</ele>
<time>2022-09-06T15:11:54.000Z</time>
</trkpt>
<trkpt lat="43.1122255" lon="-5.2337656">
<ele>980.10</ele>
<time>2022-09-06T15:12:13.000Z</time>
</trkpt>
<trkpt lat="43.1122846" lon="-5.2335323">
<ele>978.10</ele>
<time>2022-09-06T15:14:09.000Z</time>
</trkpt>
<trkpt lat="43.1122540" lon="-5.2332889">
<ele>980.19</ele>
<time>2022-09-06T15:14:57.000Z</time>
</trkpt>
<trkpt lat="43.1121712" lon="-5.2330394">
<ele>984.40</ele>
<time>2022-09-06T15:15:24.000Z</time>
</trkpt>
<trkpt lat="43.1122593" lon="-5.2332621">
<ele>984.10</ele>
<time>2022-09-06T15:16:42.000Z</time>
</trkpt>
<trkpt lat="43.1123093" lon="-5.2335081">
<ele>983.40</ele>
<time>2022-09-06T15:17:16.000Z</time>
</trkpt>
<trkpt lat="43.1122736" lon="-5.2337584">
<ele>981.11</ele>
<time>2022-09-06T15:17:36.000Z</time>
</trkpt>
<trkpt lat="43.1122752" lon="-5.2340208">
<ele>979.10</ele>
<time>2022-09-06T15:17:56.000Z</time>
</trkpt>
<trkpt lat="43.1122691" lon="-5.2342686">
<ele>976.92</ele>
<time>2022-09-06T15:18:13.000Z</time>
</trkpt>
<trkpt lat="43.1122945" lon="-5.2345268">
<ele>974.10</ele>
<time>2022-09-06T15:18:34.000Z</time>
</trkpt>
<trkpt lat="43.1122059" lon="-5.2342957">
<ele>974.10</ele>
<time>2022-09-06T15:20:34.000Z</time>
</trkpt>
<trkpt lat="43.1121994" lon="-5.2340487">
<ele>978.07</ele>
<time>2022-09-06T15:20:55.000Z</time>
</trkpt>
<trkpt lat="43.1122565" lon="-5.2337970">
<ele>979.40</ele>
<time>2022-09-06T15:21:18.000Z</time>
</trkpt>
<trkpt lat="43.1122740" lon="-5.2335373">
<ele>979.40</ele>
<time>2022-09-06T15:22:16.000Z</time>
</trkpt>
<trkpt lat="43.1122506" lon="-5.2332926">
<ele>980.40</ele>
<time>2022-09-06T15:24:18.000Z</time>
</trkpt>
<trkpt lat="43.1121669" lon="-5.2330603">
<ele>987.09</ele>
<time>2022-09-06T15:24:46.000Z</time>
</trkpt>
<trkpt lat="43.1120927" lon="-5.2328260">
<ele>986.09</ele>
<time>2022-09-06T15:26:24.000Z</time>
</trkpt>
<trkpt lat="43.1120954" lon="-5.2325711">
<ele>983.10</ele>
<time>2022-09-06T15:27:15.000Z</time>
</trkpt>
<trkpt lat="43.1119728" lon="-5.2323893">
<ele>985.10</ele>
<time>2022-09-06T15:27:43.000Z</time>
</trkpt>
<trkpt lat="43.1118377" lon="-5.2322205">
<ele>983.10</ele>
<time>2022-09-06T15:28:08.000Z</time>
</trkpt>
<trkpt lat="43.1116990" lon="-5.2320116">
<ele>978.40</ele>
<time>2022-09-06T15:28:29.000Z</time>
</trkpt>
<trkpt lat="43.1116131" lon="-5.2317947">
<ele>977.20</ele>
<time>2022-09-06T15:29:18.000Z</time>
</trkpt>
<trkpt lat="43.1114745" lon="-5.2316374">
<ele>976.83</ele>
<time>2022-09-06T15:30:32.000Z</time>
</trkpt>
<trkpt lat="43.1113563" lon="-5.2314509">
<ele>979.80</ele>
<time>2022-09-06T15:30:57.000Z</time>
</trkpt>
<trkpt lat="43.1112201" lon="-5.2312684">
<ele>982.41</ele>
<time>2022-09-06T15:31:20.000Z</time>
</trkpt>
<trkpt lat="43.1110526" lon="-5.2311569">
<ele>984.13</ele>
<time>2022-09-06T15:31:39.000Z</time>
</trkpt>
<trkpt lat="43.1109040" lon="-5.2310146">
<ele>984.08</ele>
<time>2022-09-06T15:31:56.000Z</time>
</trkpt>
<trkpt lat="43.1108539" lon="-5.2307667">
<ele>983.13</ele>
<time>2022-09-06T15:32:15.000Z</time>
</trkpt>
<trkpt lat="43.1109028" lon="-5.2305269">
<ele>984.11</ele>
<time>2022-09-06T15:32:34.000Z</time>
</trkpt>
<trkpt lat="43.1109177" lon="-5.2302804">
<ele>986.11</ele>
<time>2022-09-06T15:32:50.000Z</time>
</trkpt>
<trkpt lat="43.1109558" lon="-5.2300381">
<ele>988.11</ele>
<time>2022-09-06T15:33:05.000Z</time>
</trkpt>
<trkpt lat="43.1109796" lon="-5.2297887">
<ele>988.08</ele>
<time>2022-09-06T15:33:20.000Z</time>
</trkpt>
<trkpt lat="43.1109792" lon="-5.2295253">
<ele>987.38</ele>
<time>2022-09-06T15:33:35.000Z</time>
</trkpt>
<trkpt lat="43.1109241" lon="-5.2292829">
<ele>987.11</ele>
<time>2022-09-06T15:33:52.000Z</time>
</trkpt>
<trkpt lat="43.1108301" lon="-5.2290725">
<ele>988.11</ele>
<time>2022-09-06T15:34:07.000Z</time>
</trkpt>
<trkpt lat="43.1107246" lon="-5.2288723">
<ele>988.11</ele>
<time>2022-09-06T15:34:23.000Z</time>
</trkpt>
<trkpt lat="43.1105744" lon="-5.2287118">
<ele>986.20</ele>
<time>2022-09-06T15:34:39.000Z</time>
</trkpt>
</trkseg>
</trk>
</gpx>
